createdAt,value
2019-01-21T00:00:05.064Z,19.07
2019-01-21T00:01:05.051Z,19.07
2019-01-21T00:02:05.166Z,19.07
2019-01-21T00:03:05.032Z,19.08
2019-01-21T00:04:05.024Z,19.08
2019-01-21T00:05:05.011Z,19.07
2019-01-21T00:06:04.994Z,19.07
2019-01-21T00:07:05.012Z,19.07
2019-01-21T00:08:05.001Z,19.07
2019-01-21T00:09:04.965Z,19.07
2019-01-21T00:10:04.951Z,19.04
2019-01-21T00:11:04.942Z,19.07
2019-01-21T00:12:04.934Z,19.06
2019-01-21T00:13:04.917Z,19.04
2019-01-21T00:14:04.928Z,19.07
2019-01-21T00:15:04.897Z,19.06
2019-01-21T00:16:04.890Z,19.06
2019-01-21T00:17:04.876Z,19.04
2019-01-21T00:18:04.867Z,19.04
2019-01-21T00:19:04.875Z,19.04
2019-01-21T00:20:04.846Z,19.06
2019-01-21T00:21:04.835Z,19.04
2019-01-21T00:22:04.819Z,19.04
2019-01-21T00:23:04.810Z,19.04
2019-01-21T00:24:04.804Z,19.02
2019-01-21T00:25:05.155Z,19.02
2019-01-21T00:26:04.779Z,19.02
2019-01-21T00:27:04.764Z,19.04
2019-01-21T00:28:04.756Z,19.02
2019-01-21T00:29:04.745Z,19.00
2019-01-21T00:30:04.745Z,19.00
2019-01-21T00:31:04.750Z,19.02
2019-01-21T00:32:04.737Z,19.02
2019-01-21T00:33:04.707Z,18.99
2019-01-21T00:34:04.696Z,19.00
2019-01-21T00:35:04.677Z,19.00
2019-01-21T00:36:04.668Z,18.99
2019-01-21T00:37:04.684Z,18.99
2019-01-21T00:38:04.652Z,18.98
2019-01-21T00:39:04.632Z,18.99
2019-01-21T00:40:04.628Z,18.99
2019-01-21T00:41:04.615Z,18.98
2019-01-21T00:42:04.623Z,18.98
2019-01-21T00:43:04.588Z,18.98
2019-01-21T00:44:04.578Z,18.95
2019-01-21T00:45:04.566Z,18.98
2019-01-21T00:46:04.556Z,18.95
2019-01-21T00:47:04.577Z,18.95
2019-01-21T00:48:04.535Z,18.95
2019-01-21T00:49:04.528Z,18.95
2019-01-21T00:50:04.520Z,18.94
2019-01-21T00:51:04.505Z,18.95
2019-01-21T00:52:04.519Z,18.95
2019-01-21T00:53:04.488Z,18.95
2019-01-21T00:54:04.468Z,18.94
2019-01-21T00:55:04.459Z,18.95
2019-01-21T00:56:04.453Z,18.94
2019-01-21T00:57:04.459Z,18.92
2019-01-21T00:58:04.429Z,18.94
2019-01-21T00:59:04.414Z,18.94
2019-01-21T01:00:04.409Z,18.94
2019-01-21T01:01:04.398Z,18.92
2019-01-21T01:02:04.390Z,18.92
2019-01-21T01:03:04.402Z,18.92
2019-01-21T01:04:04.364Z,18.92
2019-01-21T01:05:04.353Z,18.92
2019-01-21T01:06:04.344Z,18.92
2019-01-21T01:07:04.331Z,18.91
2019-01-21T01:08:04.337Z,18.92
2019-01-21T01:09:04.305Z,18.92
2019-01-21T01:10:04.300Z,18.92
2019-01-21T01:11:04.291Z,18.92
2019-01-21T01:12:04.277Z,18.90
2019-01-21T01:13:04.289Z,18.91
2019-01-21T01:14:04.252Z,18.92
2019-01-21T01:15:04.244Z,18.91
2019-01-21T01:16:04.236Z,18.92
2019-01-21T01:17:04.220Z,18.91
2019-01-21T01:18:04.208Z,18.90
2019-01-21T01:19:04.492Z,18.92
2019-01-21T01:20:04.195Z,18.90
2019-01-21T01:21:04.181Z,18.91
2019-01-21T01:22:04.172Z,18.91
2019-01-21T01:23:04.154Z,18.91
2019-01-21T01:24:04.144Z,18.91
2019-01-21T01:25:04.178Z,18.91
2019-01-21T01:26:04.123Z,18.91
2019-01-21T01:27:04.114Z,18.90
2019-01-21T01:28:04.107Z,18.90
2019-01-21T01:29:04.087Z,18.91
2019-01-21T01:30:04.084Z,18.90
2019-01-21T01:31:04.096Z,18.90
2019-01-21T01:32:04.060Z,18.90
2019-01-21T01:33:04.050Z,18.88
2019-01-21T01:34:04.040Z,18.91
2019-01-21T01:35:04.038Z,18.91
2019-01-21T01:36:04.035Z,18.90
2019-01-21T01:37:04.005Z,18.90
2019-01-21T01:38:03.992Z,18.90
2019-01-21T01:39:03.977Z,18.88
2019-01-21T01:40:03.999Z,18.88
2019-01-21T01:41:03.963Z,18.90
2019-01-21T01:42:03.947Z,18.91
2019-01-21T01:43:03.941Z,18.90
2019-01-21T01:44:03.926Z,18.90
2019-01-21T01:45:03.914Z,18.90
2019-01-21T01:46:03.932Z,18.90
2019-01-21T01:47:03.893Z,18.90
2019-01-21T01:48:03.882Z,18.91
2019-01-21T01:49:03.893Z,18.91
2019-01-21T01:50:03.863Z,18.90
2019-01-21T01:51:03.851Z,18.90
2019-01-21T01:52:03.839Z,18.90
2019-01-21T01:53:03.832Z,18.90
2019-01-21T01:54:03.816Z,18.90
2019-01-21T01:55:03.832Z,18.88
2019-01-21T01:56:03.800Z,18.88
2019-01-21T01:57:03.781Z,18.90
2019-01-21T01:58:03.777Z,18.90
2019-01-21T01:59:03.759Z,18.90
2019-01-21T02:00:03.752Z,18.88
2019-01-21T02:01:03.963Z,18.88
2019-01-21T02:02:03.729Z,18.88
2019-01-21T02:03:03.715Z,18.88
2019-01-21T02:04:03.704Z,18.88
2019-01-21T02:05:03.704Z,18.87
2019-01-21T02:06:03.688Z,18.88
2019-01-21T02:07:03.697Z,18.87
2019-01-21T02:08:03.666Z,18.85
2019-01-21T02:09:03.654Z,18.85
2019-01-21T02:10:03.640Z,18.87
2019-01-21T02:11:03.632Z,18.87
2019-01-21T02:12:03.688Z,18.87
2019-01-21T02:13:03.610Z,18.85
2019-01-21T02:14:03.602Z,18.87
2019-01-21T02:15:03.592Z,18.85
2019-01-21T02:16:03.581Z,18.85
2019-01-21T02:17:03.588Z,18.85
2019-01-21T02:18:03.579Z,18.84
2019-01-21T02:19:03.547Z,18.84
2019-01-21T02:20:03.533Z,18.85
2019-01-21T02:21:03.524Z,18.84
2019-01-21T02:22:03.512Z,18.84
2019-01-21T02:23:03.523Z,18.84
2019-01-21T02:24:03.488Z,18.84
2019-01-21T02:25:03.482Z,18.84
2019-01-21T02:26:03.468Z,18.82
2019-01-21T02:27:03.455Z,18.82
2019-01-21T02:28:03.445Z,18.82
2019-01-21T02:29:03.459Z,18.84
2019-01-21T02:30:03.422Z,18.84
2019-01-21T02:31:03.413Z,18.82
2019-01-21T02:32:03.400Z,18.81
2019-01-21T02:33:03.395Z,18.82
2019-01-21T02:34:03.407Z,18.81
2019-01-21T02:35:03.367Z,18.81
2019-01-21T02:36:03.361Z,18.81
2019-01-21T02:37:03.350Z,18.81
2019-01-21T02:38:03.337Z,18.82
2019-01-21T02:39:03.321Z,18.81
2019-01-21T02:40:03.340Z,18.81
2019-01-21T02:41:03.305Z,18.81
2019-01-21T02:42:03.291Z,18.80
2019-01-21T02:43:03.284Z,18.80
2019-01-21T02:44:03.274Z,18.81
2019-01-21T02:45:03.261Z,18.81
2019-01-21T02:46:03.269Z,18.80
2019-01-21T02:47:03.234Z,18.80
2019-01-21T02:48:03.232Z,18.78
2019-01-21T02:49:03.217Z,18.78
2019-01-21T02:50:03.202Z,18.80
2019-01-21T02:51:03.225Z,18.80
2019-01-21T02:52:03.185Z,18.76
2019-01-21T02:53:03.172Z,18.78
2019-01-21T02:54:03.161Z,18.78
2019-01-21T02:55:03.156Z,18.78
2019-01-21T02:56:03.144Z,18.76
2019-01-21T02:57:03.160Z,18.76
2019-01-21T02:58:03.118Z,18.78
2019-01-21T02:59:03.104Z,18.76
2019-01-21T03:00:03.093Z,18.78
2019-01-21T03:01:03.086Z,18.75
2019-01-21T03:02:03.075Z,18.76
2019-01-21T03:03:03.203Z,18.75
2019-01-21T03:04:03.057Z,18.75
2019-01-21T03:05:03.038Z,18.75
2019-01-21T03:06:03.031Z,18.76
2019-01-21T03:07:03.021Z,18.75
2019-01-21T03:08:03.032Z,18.75
2019-01-21T03:09:03.217Z,18.75
2019-01-21T03:10:02.993Z,18.76
2019-01-21T03:11:02.981Z,18.75
2019-01-21T03:12:02.967Z,18.75
2019-01-21T03:13:02.951Z,18.73
2019-01-21T03:14:02.940Z,18.75
2019-01-21T03:15:02.959Z,18.76
2019-01-21T03:16:02.923Z,18.75
2019-01-21T03:17:02.918Z,18.73
2019-01-21T03:18:07.960Z,18.75
2019-01-21T03:19:03.892Z,18.73
2019-01-21T03:20:02.886Z,18.72
2019-01-21T03:21:02.902Z,18.73
2019-01-21T03:22:02.858Z,18.75
2019-01-21T03:23:02.856Z,18.75
2019-01-21T03:24:02.839Z,18.75
2019-01-21T03:25:02.825Z,18.73
2019-01-21T03:26:02.819Z,18.73
2019-01-21T03:27:02.834Z,18.73
2019-01-21T03:28:02.799Z,18.73
2019-01-21T03:29:02.780Z,18.73
2019-01-21T03:30:02.771Z,18.72
2019-01-21T03:31:02.765Z,18.72
2019-01-21T03:32:02.755Z,18.72
2019-01-21T03:33:02.781Z,18.72
2019-01-21T03:34:02.729Z,18.73
2019-01-21T03:35:02.742Z,18.73
2019-01-21T03:36:02.710Z,18.72
2019-01-21T03:37:02.765Z,18.72
2019-01-21T03:38:02.688Z,18.70
2019-01-21T03:39:02.679Z,18.72
2019-01-21T03:40:02.660Z,18.72
2019-01-21T03:41:02.650Z,18.70
2019-01-21T03:42:02.640Z,18.70
2019-01-21T03:43:02.649Z,18.70
2019-01-21T03:44:02.622Z,18.70
2019-01-21T03:45:02.606Z,18.70
2019-01-21T03:46:02.599Z,18.70
2019-01-21T03:47:02.587Z,18.70
2019-01-21T03:48:02.580Z,18.69
2019-01-21T03:49:02.590Z,18.69
2019-01-21T03:50:02.558Z,18.69
2019-01-21T03:51:02.550Z,18.69
2019-01-21T03:52:02.556Z,18.70
2019-01-21T03:53:02.527Z,18.69
2019-01-21T03:54:02.513Z,18.70
2019-01-21T03:55:02.506Z,18.69
2019-01-21T03:56:02.496Z,18.69
2019-01-21T03:57:02.479Z,18.69
2019-01-21T03:58:02.692Z,18.67
2019-01-21T03:59:02.463Z,18.69
2019-01-21T04:00:02.456Z,18.67
2019-01-21T04:01:02.438Z,18.69
2019-01-21T04:02:02.425Z,18.69
2019-01-21T04:03:02.421Z,18.67
2019-01-21T04:04:02.422Z,18.67
2019-01-21T04:05:02.397Z,18.66
2019-01-21T04:06:02.379Z,18.67
2019-01-21T04:07:02.370Z,18.66
2019-01-21T04:08:02.361Z,18.66
2019-01-21T04:09:02.628Z,18.66
2019-01-21T04:10:02.343Z,18.66
2019-01-21T04:11:02.333Z,18.67
2019-01-21T04:12:02.321Z,18.66
2019-01-21T04:13:02.313Z,18.66
2019-01-21T04:14:02.306Z,18.66
2019-01-21T04:15:02.305Z,18.65
2019-01-21T04:16:02.275Z,18.66
2019-01-21T04:17:02.259Z,18.65
2019-01-21T04:18:02.254Z,18.65
2019-01-21T04:19:02.247Z,18.65
2019-01-21T04:20:02.254Z,18.65
2019-01-21T04:21:02.228Z,18.66
2019-01-21T04:22:02.207Z,18.66
2019-01-21T04:23:02.198Z,18.65
2019-01-21T04:24:02.210Z,18.65
2019-01-21T04:25:02.180Z,18.65
2019-01-21T04:26:02.167Z,18.65
2019-01-21T04:27:02.157Z,18.65
2019-01-21T04:28:02.141Z,18.65
2019-01-21T04:29:02.131Z,18.65
2019-01-21T04:30:02.143Z,18.65
2019-01-21T04:31:02.112Z,18.65
2019-01-21T04:32:02.097Z,18.63
2019-01-21T04:33:02.094Z,18.63
2019-01-21T04:34:02.100Z,18.65
2019-01-21T04:35:02.087Z,18.65
2019-01-21T04:36:02.055Z,18.65
2019-01-21T04:37:02.052Z,18.63
2019-01-21T04:38:02.039Z,18.65
2019-01-21T04:39:02.048Z,18.65
2019-01-21T04:40:02.016Z,18.63
2019-01-21T04:41:02.013Z,18.62
2019-01-21T04:42:01.989Z,18.63
2019-01-21T04:43:01.988Z,18.63
2019-01-21T04:44:01.974Z,18.62
2019-01-21T04:45:02.026Z,18.63
2019-01-21T04:46:01.948Z,18.62
2019-01-21T04:47:01.935Z,18.62
2019-01-21T04:48:01.932Z,18.62
2019-01-21T04:49:01.923Z,18.62
2019-01-21T04:50:01.931Z,18.63
2019-01-21T04:51:01.899Z,18.62
2019-01-21T04:52:01.887Z,18.62
2019-01-21T04:53:01.876Z,18.62
2019-01-21T04:54:01.864Z,18.60
2019-01-21T04:55:01.883Z,18.60
2019-01-21T04:56:01.864Z,18.62
2019-01-21T04:57:01.836Z,18.62
2019-01-21T04:58:01.818Z,18.62
2019-01-21T04:59:01.809Z,18.62
2019-01-21T05:00:01.797Z,18.60
2019-01-21T05:01:02.003Z,18.62
2019-01-21T05:02:01.778Z,18.60
2019-01-21T05:03:01.767Z,18.60
2019-01-21T05:04:01.752Z,18.60
2019-01-21T05:05:01.745Z,18.60
2019-01-21T05:06:01.741Z,18.58
2019-01-21T05:07:01.743Z,18.58
2019-01-21T05:08:01.722Z,18.60
2019-01-21T05:09:01.698Z,18.60
2019-01-21T05:10:01.700Z,18.58
2019-01-21T05:11:01.680Z,18.60
2019-01-21T05:12:01.691Z,18.60
2019-01-21T05:13:01.661Z,18.58
2019-01-21T05:14:01.644Z,18.58
2019-01-21T05:15:01.639Z,18.60
2019-01-21T05:16:01.629Z,18.60
2019-01-21T05:17:01.635Z,18.60
2019-01-21T05:18:01.626Z,18.58
2019-01-21T05:19:01.595Z,18.58
2019-01-21T05:20:01.586Z,18.58
2019-01-21T05:21:01.572Z,18.58
2019-01-21T05:22:01.565Z,18.60
2019-01-21T05:23:01.552Z,18.58
2019-01-21T05:24:01.559Z,18.58
2019-01-21T05:25:01.527Z,18.58
2019-01-21T05:26:01.513Z,18.58
2019-01-21T05:27:01.510Z,18.58
2019-01-21T05:28:01.502Z,18.58
2019-01-21T05:29:01.493Z,18.57
2019-01-21T05:30:01.497Z,18.57
2019-01-21T05:31:01.466Z,18.58
2019-01-21T05:32:01.453Z,18.57
2019-01-21T05:33:01.443Z,18.58
2019-01-21T05:34:01.434Z,18.57
2019-01-21T05:35:01.425Z,18.57
2019-01-21T05:36:01.619Z,18.57
2019-01-21T05:37:01.402Z,18.57
2019-01-21T05:38:01.385Z,18.58
2019-01-21T05:39:01.382Z,18.55
2019-01-21T05:40:01.367Z,18.57
2019-01-21T05:41:01.357Z,18.57
2019-01-21T05:42:01.371Z,18.57
2019-01-21T05:43:01.338Z,18.57
2019-01-21T05:44:01.328Z,18.57
2019-01-21T05:45:01.336Z,18.55
2019-01-21T05:46:01.307Z,18.55
2019-01-21T05:47:01.295Z,18.58
2019-01-21T05:48:01.304Z,18.55
2019-01-21T05:49:01.280Z,18.55
2019-01-21T05:50:01.330Z,18.57
2019-01-21T05:51:01.250Z,18.55
2019-01-21T05:52:01.245Z,18.55
2019-01-21T05:53:01.242Z,18.57
2019-01-21T05:54:01.218Z,18.54
2019-01-21T05:55:01.201Z,18.55
2019-01-21T05:56:01.195Z,18.55
2019-01-21T05:57:01.182Z,18.55
2019-01-21T05:58:01.194Z,18.57
2019-01-21T05:59:01.162Z,18.57
2019-01-21T06:00:01.156Z,18.55
2019-01-21T06:01:01.144Z,18.55
2019-01-21T06:02:01.126Z,18.55
2019-01-21T06:03:01.139Z,18.55
2019-01-21T06:04:01.107Z,18.55
2019-01-21T06:05:01.098Z,18.54
2019-01-21T06:06:01.086Z,18.55
2019-01-21T06:07:01.079Z,18.55
2019-01-21T06:08:01.273Z,18.54
2019-01-21T06:09:01.051Z,18.54
2019-01-21T06:10:01.048Z,18.55
2019-01-21T06:11:01.033Z,18.55
2019-01-21T06:12:01.042Z,18.55
2019-01-21T06:13:01.014Z,18.54
2019-01-21T06:14:01.030Z,18.54
2019-01-21T06:15:00.988Z,18.55
2019-01-21T06:16:00.982Z,18.54
2019-01-21T06:17:00.969Z,18.54
2019-01-21T06:18:00.960Z,18.54
2019-01-21T06:19:00.949Z,18.55
2019-01-21T06:20:00.965Z,18.54
2019-01-21T06:21:00.985Z,18.54
2019-01-21T06:22:00.915Z,18.54
2019-01-21T06:23:00.902Z,18.54
2019-01-21T06:24:00.890Z,18.54
2019-01-21T06:25:00.884Z,18.52
2019-01-21T06:26:00.891Z,18.52
2019-01-21T06:27:00.862Z,18.52
2019-01-21T06:28:00.849Z,18.52
2019-01-21T06:29:00.836Z,18.52
2019-01-21T06:30:00.827Z,18.51
2019-01-21T06:31:00.815Z,18.51
2019-01-21T06:32:01.027Z,18.51
2019-01-21T06:33:00.793Z,18.52
2019-01-21T06:34:00.788Z,18.52
2019-01-21T06:35:00.782Z,18.52
2019-01-21T06:36:00.758Z,18.51
2019-01-21T06:37:00.747Z,18.51
2019-01-21T06:38:00.756Z,18.52
2019-01-21T06:39:00.732Z,18.51
2019-01-21T06:40:00.722Z,18.51
2019-01-21T06:41:00.711Z,18.51
2019-01-21T06:42:00.714Z,18.52
2019-01-21T06:43:00.682Z,18.50
2019-01-21T06:44:00.698Z,18.52
2019-01-21T06:45:00.664Z,18.52
2019-01-21T06:46:00.647Z,18.51
2019-01-21T06:47:00.648Z,18.51
2019-01-21T06:48:00.635Z,18.52
2019-01-21T06:49:04.669Z,18.52
2019-01-21T06:50:00.633Z,18.52
2019-01-21T06:51:00.631Z,18.54
2019-01-21T06:52:00.585Z,18.54
2019-01-21T06:53:00.582Z,18.55
2019-01-21T06:54:00.576Z,18.57
2019-01-21T06:55:00.559Z,18.58
2019-01-21T06:56:00.545Z,18.60
2019-01-21T06:57:00.567Z,18.60
2019-01-21T06:58:00.522Z,18.62
2019-01-21T06:59:00.519Z,18.63
2019-01-21T07:00:00.507Z,18.63
2019-01-21T07:01:00.496Z,18.65
2019-01-21T07:02:00.478Z,18.65
2019-01-21T07:03:00.494Z,18.66
2019-01-21T07:04:00.459Z,18.66
2019-01-21T07:05:00.453Z,18.67
2019-01-21T07:06:00.445Z,18.67
2019-01-21T07:07:00.430Z,18.67
2019-01-21T07:08:00.449Z,18.65
2019-01-21T07:09:00.407Z,18.66
2019-01-21T07:10:00.392Z,18.66
2019-01-21T07:11:00.382Z,18.65
2019-01-21T07:12:00.372Z,18.66
2019-01-21T07:13:00.367Z,18.65
2019-01-21T07:14:00.377Z,18.65
2019-01-21T07:15:00.393Z,18.65
2019-01-21T07:16:00.330Z,18.65
2019-01-21T07:17:00.320Z,18.63
2019-01-21T07:18:00.312Z,18.63
2019-01-21T07:19:00.320Z,18.62
2019-01-21T07:20:00.307Z,18.62
2019-01-21T07:21:00.279Z,18.62
2019-01-21T07:22:00.271Z,18.62
2019-01-21T07:23:00.258Z,18.60
2019-01-21T07:24:00.247Z,18.60
2019-01-21T07:25:00.233Z,18.58
2019-01-21T07:26:00.239Z,18.58
2019-01-21T07:27:00.218Z,18.60
2019-01-21T07:28:00.201Z,18.58
2019-01-21T07:29:00.189Z,18.58
2019-01-21T07:30:00.296Z,18.58
2019-01-21T07:31:00.198Z,18.58
2019-01-21T07:32:00.158Z,18.60
2019-01-21T07:33:00.149Z,18.60
2019-01-21T07:34:00.138Z,18.58
2019-01-21T07:35:00.235Z,18.62
2019-01-21T07:36:00.113Z,18.66
2019-01-21T07:37:00.134Z,18.69
2019-01-21T07:38:00.095Z,18.73
2019-01-21T07:39:00.082Z,18.80
2019-01-21T07:40:00.086Z,18.88
2019-01-21T07:41:00.068Z,18.98
2019-01-21T07:42:00.052Z,19.06
2019-01-21T07:43:00.369Z,19.16
2019-01-21T07:44:00.028Z,19.26
2019-01-21T07:45:00.021Z,19.37
2019-01-21T07:46:00.006Z,19.47
2019-01-21T07:46:59.996Z,19.56
2019-01-21T07:47:59.984Z,19.65
2019-01-21T07:48:59.994Z,19.74
2019-01-21T07:49:59.967Z,19.80
2019-01-21T07:50:59.954Z,19.87
2019-01-21T07:51:59.945Z,19.94
2019-01-21T07:52:59.933Z,19.98
2019-01-21T07:53:59.938Z,20.02
2019-01-21T07:54:59.911Z,20.06
2019-01-21T07:55:59.899Z,20.10
2019-01-21T07:56:59.883Z,20.13
2019-01-21T07:57:59.881Z,20.14
2019-01-21T07:58:59.862Z,20.14
2019-01-21T07:59:59.871Z,20.18
2019-01-21T08:00:59.844Z,20.20
2019-01-21T08:01:59.835Z,20.21
2019-01-21T08:03:00.038Z,20.21
2019-01-21T08:03:59.814Z,20.23
2019-01-21T08:04:59.806Z,20.24
2019-01-21T08:05:59.793Z,20.24
2019-01-21T08:06:59.774Z,20.24
2019-01-21T08:07:59.765Z,20.24
2019-01-21T08:08:59.781Z,20.24
2019-01-21T08:09:59.741Z,20.26
2019-01-21T08:10:59.737Z,20.24
2019-01-21T08:11:59.724Z,20.26
2019-01-21T08:12:59.711Z,20.26
2019-01-21T08:13:59.700Z,20.26
2019-01-21T08:14:59.714Z,20.24
2019-01-21T08:15:59.680Z,20.24
2019-01-21T08:16:59.672Z,20.26
2019-01-21T08:17:59.656Z,20.24
2019-01-21T08:18:59.669Z,20.23
2019-01-21T08:19:59.637Z,20.23
2019-01-21T08:20:59.625Z,20.23
2019-01-21T08:21:59.609Z,20.21
2019-01-21T08:22:59.601Z,20.20
2019-01-21T08:23:59.616Z,20.20
2019-01-21T08:24:59.599Z,20.18
2019-01-21T08:25:59.569Z,20.17
2019-01-21T08:26:59.557Z,20.16
2019-01-21T08:27:59.551Z,20.17
2019-01-21T08:28:59.552Z,20.14
2019-01-21T08:29:59.540Z,20.16
2019-01-21T08:30:59.518Z,20.13
2019-01-21T08:31:59.502Z,20.13
2019-01-21T08:32:59.489Z,20.11
2019-01-21T08:33:59.771Z,20.11
2019-01-21T08:34:59.467Z,20.11
2019-01-21T08:35:59.463Z,20.10
2019-01-21T08:36:59.450Z,20.08
2019-01-21T08:37:59.462Z,20.06
2019-01-21T08:38:59.427Z,20.05
2019-01-21T08:39:59.414Z,20.05
2019-01-21T08:40:59.404Z,20.02
2019-01-21T08:41:59.400Z,20.02
2019-01-21T08:42:59.402Z,20.01
2019-01-21T08:43:59.377Z,19.99
2019-01-21T08:44:59.362Z,19.98
2019-01-21T08:45:59.355Z,19.96
2019-01-21T08:46:59.341Z,19.94
2019-01-21T08:47:59.350Z,19.92
2019-01-21T08:48:59.314Z,19.88
2019-01-21T08:49:59.311Z,19.88
2019-01-21T08:50:59.302Z,19.87
2019-01-21T08:51:59.284Z,19.87
2019-01-21T08:52:59.273Z,19.86
2019-01-21T08:53:59.285Z,19.86
2019-01-21T08:54:59.255Z,19.86
2019-01-21T08:55:59.240Z,19.84
2019-01-21T08:56:59.233Z,19.84
2019-01-21T08:57:59.223Z,19.83
2019-01-21T08:58:59.203Z,19.80
2019-01-21T08:59:59.212Z,19.81
2019-01-21T09:00:59.190Z,19.80
2019-01-21T09:01:59.172Z,19.80
2019-01-21T09:02:59.170Z,19.78
2019-01-21T09:03:59.151Z,19.76
2019-01-21T09:04:59.164Z,19.76
2019-01-21T09:05:59.128Z,19.74
2019-01-21T09:07:00.795Z,19.73
2019-01-21T09:07:59.113Z,19.74
2019-01-21T09:08:59.122Z,19.71
2019-01-21T09:09:59.090Z,19.69
2019-01-21T09:10:59.076Z,19.69
2019-01-21T09:11:59.063Z,19.69
2019-01-21T09:12:59.055Z,19.68
2019-01-21T09:13:59.047Z,19.68
2019-01-21T09:14:59.055Z,19.66
2019-01-21T09:15:59.022Z,19.65
2019-01-21T09:16:59.011Z,19.65
2019-01-21T09:17:58.995Z,19.63
2019-01-21T09:18:58.989Z,19.62
2019-01-21T09:19:58.976Z,19.63
2019-01-21T09:20:58.994Z,19.62
2019-01-21T09:21:58.951Z,19.61
2019-01-21T09:22:58.943Z,19.62
2019-01-21T09:23:58.929Z,19.62
2019-01-21T09:24:58.920Z,19.62
2019-01-21T09:25:58.907Z,19.61
2019-01-21T09:26:58.919Z,19.62
2019-01-21T09:27:58.893Z,19.61
2019-01-21T09:28:58.881Z,19.63
2019-01-21T09:29:58.869Z,19.63
2019-01-21T09:30:58.853Z,19.63
2019-01-21T09:31:58.867Z,19.63
2019-01-21T09:32:58.828Z,19.63
2019-01-21T09:33:58.820Z,19.65
2019-01-21T09:34:58.839Z,19.65
2019-01-21T09:35:58.800Z,19.63
2019-01-21T09:36:58.788Z,19.66
2019-01-21T09:37:58.783Z,19.63
2019-01-21T09:38:58.767Z,19.65
2019-01-21T09:39:58.754Z,19.65
2019-01-21T09:40:58.776Z,19.65
2019-01-21T09:41:58.739Z,19.65
2019-01-21T09:42:58.728Z,19.65
2019-01-21T09:43:58.709Z,19.65
2019-01-21T09:44:58.705Z,19.66
2019-01-21T09:45:58.694Z,19.69
2019-01-21T09:46:58.708Z,19.71
2019-01-21T09:47:58.676Z,19.71
2019-01-21T09:48:58.661Z,19.71
2019-01-21T09:49:58.654Z,19.73
2019-01-21T09:50:58.633Z,19.73
2019-01-21T09:51:58.630Z,19.73
2019-01-21T09:52:58.635Z,19.73
2019-01-21T09:53:58.599Z,19.74
2019-01-21T09:54:58.592Z,19.74
2019-01-21T09:55:58.585Z,19.71
2019-01-21T09:56:58.572Z,19.73
2019-01-21T09:57:58.560Z,19.74
2019-01-21T09:58:58.570Z,19.74
2019-01-21T09:59:58.540Z,19.73
2019-01-21T10:00:58.528Z,19.76
2019-01-21T10:01:58.519Z,19.76
2019-01-21T10:02:58.501Z,19.76
2019-01-21T10:03:58.497Z,19.76
2019-01-21T10:04:58.502Z,19.78
2019-01-21T10:05:58.475Z,19.77
2019-01-21T10:06:58.457Z,19.80
2019-01-21T10:07:58.451Z,19.81
2019-01-21T10:08:58.457Z,19.81
2019-01-21T10:09:58.431Z,19.83
2019-01-21T10:11:03.389Z,19.83
2019-01-21T10:11:59.406Z,19.84
2019-01-21T10:12:58.390Z,19.84
2019-01-21T10:13:58.387Z,19.86
2019-01-21T10:14:58.393Z,19.84
2019-01-21T10:15:58.387Z,19.86
2019-01-21T10:16:58.353Z,19.83
2019-01-21T10:17:59.731Z,19.83
2019-01-21T10:18:58.332Z,19.83
2019-01-21T10:19:58.317Z,19.84
2019-01-21T10:20:58.305Z,19.84
2019-01-21T10:21:58.326Z,19.84
2019-01-21T10:22:58.282Z,19.86
2019-01-21T10:23:58.275Z,19.84
2019-01-21T10:24:58.308Z,19.86
2019-01-21T10:25:58.251Z,19.86
2019-01-21T10:26:58.240Z,19.86
2019-01-21T10:27:58.256Z,19.86
2019-01-21T10:28:58.218Z,19.87
2019-01-21T10:29:58.209Z,19.87
2019-01-21T10:30:58.203Z,19.88
2019-01-21T10:31:59.427Z,19.87
2019-01-21T10:32:58.178Z,19.91
2019-01-21T10:33:58.186Z,19.88
2019-01-21T10:34:58.150Z,19.91
2019-01-21T10:35:58.141Z,19.92
2019-01-21T10:36:58.135Z,19.92
2019-01-21T10:37:58.124Z,19.91
2019-01-21T10:38:58.109Z,19.92
2019-01-21T10:39:58.123Z,19.92
2019-01-21T10:40:58.089Z,19.94
2019-01-21T10:41:58.073Z,19.92
2019-01-21T10:42:58.070Z,19.92
2019-01-21T10:43:58.061Z,19.92
2019-01-21T10:44:58.042Z,19.94
2019-01-21T10:45:58.057Z,19.92
2019-01-21T10:46:58.046Z,19.92
2019-01-21T10:47:58.015Z,19.92
2019-01-21T10:48:58.002Z,19.91
2019-01-21T10:49:57.995Z,19.92
2019-01-21T10:50:57.974Z,19.92
2019-01-21T10:51:57.969Z,19.91
2019-01-21T10:52:57.977Z,19.92
2019-01-21T10:53:57.942Z,19.91
2019-01-21T10:54:57.955Z,19.92
2019-01-21T10:55:57.921Z,19.91
2019-01-21T10:56:57.915Z,19.91
2019-01-21T10:57:58.130Z,19.91
2019-01-21T10:58:57.891Z,19.91
2019-01-21T10:59:57.882Z,19.91
2019-01-21T11:00:57.873Z,19.88
2019-01-21T11:01:57.860Z,19.88
2019-01-21T11:02:57.851Z,19.88
2019-01-21T11:03:57.857Z,19.87
2019-01-21T11:04:57.830Z,19.87
2019-01-21T11:05:57.817Z,19.87
2019-01-21T11:06:57.806Z,19.86
2019-01-21T11:07:57.794Z,19.86
2019-01-21T11:08:57.785Z,19.87
2019-01-21T11:09:57.798Z,19.86
2019-01-21T11:10:57.763Z,19.87
2019-01-21T11:11:57.754Z,19.84
2019-01-21T11:12:57.743Z,19.84
2019-01-21T11:13:57.735Z,19.84
2019-01-21T11:14:57.742Z,19.86
2019-01-21T11:15:57.708Z,19.83
2019-01-21T11:16:57.693Z,19.84
2019-01-21T11:17:57.689Z,19.83
2019-01-21T11:18:57.670Z,19.83
2019-01-21T11:20:03.782Z,19.83
2019-01-21T11:20:58.656Z,19.84
2019-01-21T11:21:57.643Z,19.84
2019-01-21T11:22:57.635Z,19.83
2019-01-21T11:23:57.618Z,19.83
2019-01-21T11:24:57.615Z,19.83
2019-01-21T11:25:57.626Z,19.83
2019-01-21T11:26:57.585Z,19.83
2019-01-21T11:27:57.583Z,19.83
2019-01-21T11:28:57.566Z,19.83
2019-01-21T11:29:57.550Z,19.83
2019-01-21T11:30:57.562Z,19.83
2019-01-21T11:31:57.536Z,19.83
2019-01-21T11:32:57.524Z,19.84
2019-01-21T11:33:57.507Z,19.84
2019-01-21T11:34:57.504Z,19.84
2019-01-21T11:35:57.487Z,19.84
2019-01-21T11:36:57.501Z,19.84
2019-01-21T11:37:57.471Z,19.84
2019-01-21T11:38:57.456Z,19.84
2019-01-21T11:39:57.443Z,19.86
2019-01-21T11:40:57.430Z,19.86
2019-01-21T11:41:57.420Z,19.86
2019-01-21T11:42:57.433Z,19.86
2019-01-21T11:43:57.402Z,19.87
2019-01-21T11:44:57.395Z,19.86
2019-01-21T11:45:57.379Z,19.86
2019-01-21T11:46:57.368Z,19.87
2019-01-21T11:47:57.571Z,19.87
2019-01-21T11:48:57.348Z,19.86
2019-01-21T11:49:57.341Z,19.86
2019-01-21T11:50:57.327Z,19.87
2019-01-21T11:51:57.315Z,19.86
2019-01-21T11:52:57.298Z,19.86
2019-01-21T11:53:57.507Z,19.87
2019-01-21T11:54:57.284Z,19.86
2019-01-21T11:55:57.269Z,19.86
2019-01-21T11:56:57.259Z,19.86
2019-01-21T11:57:57.245Z,19.86
2019-01-21T11:58:57.236Z,19.86
2019-01-21T11:59:57.255Z,19.86
2019-01-21T12:00:57.216Z,19.86
2019-01-21T12:01:57.203Z,19.86
2019-01-21T12:02:57.192Z,19.86
2019-01-21T12:03:57.190Z,19.86
2019-01-21T12:04:57.393Z,19.86
2019-01-21T12:05:57.166Z,19.86
2019-01-21T12:06:57.154Z,19.86
2019-01-21T12:07:57.142Z,19.87
2019-01-21T12:08:57.132Z,19.86
2019-01-21T12:09:57.116Z,19.87
2019-01-21T12:10:57.132Z,19.87
2019-01-21T12:11:57.100Z,19.87
2019-01-21T12:12:57.087Z,19.88
2019-01-21T12:13:57.074Z,19.88
2019-01-21T12:14:57.059Z,19.88
2019-01-21T12:15:57.050Z,19.88
2019-01-21T12:16:57.063Z,19.91
2019-01-21T12:17:57.031Z,19.91
2019-01-21T12:18:57.017Z,19.91
2019-01-21T12:19:57.009Z,19.91
2019-01-21T12:20:56.993Z,19.91
2019-01-21T12:21:56.985Z,19.91
2019-01-21T12:22:57.001Z,19.91
2019-01-21T12:23:56.969Z,19.91
2019-01-21T12:24:56.955Z,19.91
2019-01-21T12:25:56.944Z,19.92
2019-01-21T12:26:56.928Z,19.94
2019-01-21T12:27:56.925Z,19.94
2019-01-21T12:28:56.936Z,19.94
2019-01-21T12:29:56.902Z,19.95
2019-01-21T12:30:56.890Z,19.94
2019-01-21T12:31:56.879Z,19.95
2019-01-21T12:32:56.869Z,19.95
2019-01-21T12:33:56.853Z,19.95
2019-01-21T12:34:57.058Z,19.95
2019-01-21T12:35:56.838Z,19.95
2019-01-21T12:36:56.821Z,19.96
2019-01-21T12:37:56.817Z,19.96
2019-01-21T12:38:56.805Z,19.96
2019-01-21T12:39:56.788Z,19.98
2019-01-21T12:40:56.802Z,19.98
2019-01-21T12:41:56.774Z,19.96
2019-01-21T12:42:56.770Z,19.98
2019-01-21T12:43:56.751Z,19.98
2019-01-21T12:44:56.756Z,19.98
2019-01-21T12:45:56.753Z,19.98
2019-01-21T12:46:56.711Z,19.99
2019-01-21T12:47:56.702Z,19.98
2019-01-21T12:48:56.692Z,19.99
2019-01-21T12:49:56.678Z,19.98
2019-01-21T12:50:56.674Z,19.99
2019-01-21T12:51:56.695Z,19.99